Time;durP1;ratioP1;P1;durP2;ratioP2;P2;SDS_P1;SDS_P2;PMS_P1;PMS_P2;Temp;Humidity;BMP_temperature;BMP_pressure;BME280_temperature;BME280_humidity;BME280_pressure;Samples;Min_cycle;Max_cycle;Signal;HPM_P1;HPM_P2
2021/10/11 00:00:57;;;;;;;;;2.00;2.00;;;;;13.45;67.61;102414.44;5043132;28;48369;-75
2021/10/11 00:03:22;;;;;;;;;3.00;2.25;;;;;13.61;68.14;102436.63;5044480;28;45319;-75
2021/10/11 00:05:47;;;;;;;;;1.75;1.75;;;;;13.52;68.02;102418.09;5044801;28;45272;-75
2021/10/11 00:08:13;;;;;;;;;1.00;0.25;;;;;13.70;67.84;102435.97;5045048;28;45559;-75
2021/10/11 00:10:38;;;;;;;;;3.50;3.00;;;;;13.70;68.01;102430.72;5044619;28;45241;-76
2021/10/11 00:13:03;;;;;;;;;3.00;3.00;;;;;13.64;67.91;102421.00;5043101;28;45284;-75
2021/10/11 00:15:29;;;;;;;;;3.50;3.50;;;;;13.53;68.56;102409.38;5044523;28;45352;-75
2021/10/11 00:17:55;;;;;;;;;2.00;2.00;;;;;13.67;68.51;102434.16;5044659;28;45236;-75
2021/10/11 00:20:21;;;;;;;;;4.50;4.00;;;;;13.59;68.98;102424.34;5044533;28;46465;-75
2021/10/11 00:22:47;;;;;;;;;4.75;3.25;;;;;13.54;69.21;102425.13;5042667;28;45367;-75
2021/10/11 00:25:13;;;;;;;;;2.25;2.25;;;;;13.55;69.02;102420.78;5044345;28;45265;-75
2021/10/11 00:27:38;;;;;;;;;3.00;3.00;;;;;13.52;68.70;102421.59;5059793;28;45422;-75
2021/10/11 00:30:06;;;;;;;;;4.00;3.25;;;;;13.56;68.74;102430.41;5042664;28;48524;-75
2021/10/11 00:32:31;;;;;;;;;5.50;3.00;;;;;13.54;69.76;102432.09;5044204;28;45494;-75
2021/10/11 00:34:57;;;;;;;;;2.50;2.50;;;;;13.48;69.28;102426.69;5044267;28;45339;-75
2021/10/11 00:37:22;;;;;;;;;7.25;3.25;;;;;13.55;69.83;102441.72;5044586;28;45606;-75
2021/10/11 00:39:47;;;;;;;;;2.25;1.75;;;;;13.46;69.68;102438.84;5059265;28;48196;-75
2021/10/11 00:42:13;;;;;;;;;2.00;2.00;;;;;13.30;69.70;102420.19;5043644;28;45387;-74
2021/10/11 00:44:38;;;;;;;;;7.25;5.00;;;;;13.30;69.98;102431.50;5044097;28;45225;-74
2021/10/11 00:47:03;;;;;;;;;3.75;2.50;;;;;13.25;70.12;102421.78;5041973;28;45311;-74
2021/10/11 00:49:29;;;;;;;;;3.75;3.00;;;;;13.31;70.73;102440.25;5042352;28;47134;-74
2021/10/11 00:51:56;;;;;;;;;3.25;3.25;;;;;13.29;70.53;102436.69;5043981;28;45301;-74
2021/10/11 00:54:23;;;;;;;;;3.50;3.50;;;;;13.05;70.64;102394.28;5044109;28;45291;-74
2021/10/11 00:56:50;;;;;;;;;4.00;4.00;;;;;13.12;71.02;102403.19;5044232;28;45445;-74
2021/10/11 00:59:16;;;;;;;;;7.50;3.50;;;;;13.22;71.25;102424.31;5058786;28;47195;-74
2021/10/11 01:01:41;;;;;;;;;2.75;2.00;;;;;12.99;71.31;102380.19;5043591;28;45261;-74
2021/10/11 01:04:07;;;;;;;;;4.25;1.75;;;;;13.21;71.58;102410.38;5059111;28;45318;-75
2021/10/11 01:06:37;;;;;;;;;3.00;3.00;;;;;13.29;71.50;102421.00;5059569;28;45310;-74
2021/10/11 01:09:08;;;;;;;;;3.50;3.00;;;;;13.18;71.30;102389.38;5042204;28;47371;-74
2021/10/11 01:11:34;;;;;;;;;3.75;2.00;;;;;13.03;71.03;102372.47;5026781;28;45344;-74
2021/10/11 01:14:00;;;;;;;;;5.50;4.25;;;;;13.32;71.39;102428.06;5043430;28;45118;-75
2021/10/11 01:16:26;;;;;;;;;2.00;2.00;;;;;13.30;70.98;102428.03;5042600;28;45245;-74
2021/10/11 01:18:51;;;;;;;;;6.00;4.75;;;;;13.28;71.15;102427.09;5041723;28;47286;-75
2021/10/11 01:21:17;;;;;;;;;3.00;2.75;;;;;13.19;71.59;102406.81;5058894;28;45181;-75
2021/10/11 01:23:42;;;;;;;;;9.25;4.00;;;;;13.26;71.59;102418.34;5058937;28;45254;-74
2021/10/11 01:26:08;;;;;;;;;4.25;2.50;;;;;13.39;71.94;102425.59;5042381;28;45397;-74
2021/10/11 01:28:33;;;;;;;;;3.00;3.00;;;;;13.41;71.58;102429.16;5043412;28;45352;-74
2021/10/11 01:30:59;;;;;;;;;3.75;2.75;;;;;13.30;71.63;102397.50;5041892;28;45350;-74
2021/10/11 01:33:24;;;;;;;;;1.75;1.75;;;;;13.33;71.67;102396.72;5043465;28;45322;-75
2021/10/11 01:35:50;;;;;;;;;2.25;1.75;;;;;13.47;71.96;102406.63;5042198;28;45557;-74
2021/10/11 01:38:15;;;;;;;;;3.25;1.00;;;;;13.50;71.51;102401.47;5043014;28;46073;-75
2021/10/11 01:40:41;;;;;;;;;2.00;2.00;;;;;13.60;71.49;102410.44;5041860;28;45348;-73
2021/10/11 01:43:08;;;;;;;;;3.50;3.50;;;;;13.49;71.44;102389.22;5043359;28;45367;-73
2021/10/11 01:45:34;;;;;;;;;4.00;2.75;;;;;13.40;71.82;102372.47;5042084;28;45493;-74
2021/10/11 01:47:59;;;;;;;;;4.50;2.25;;;;;13.41;71.05;102379.47;5042827;28;45360;-74
2021/10/11 01:50:25;;;;;;;;;2.00;2.00;;;;;13.49;71.80;102392.75;5042961;28;45260;-74
2021/10/11 01:52:50;;;;;;;;;3.75;3.00;;;;;13.39;71.75;102377.66;5043164;28;45320;-74
2021/10/11 01:55:16;;;;;;;;;4.00;2.25;;;;;13.48;71.58;102406.63;5043274;28;45459;-74
2021/10/11 01:57:41;;;;;;;;;4.50;4.00;;;;;13.21;71.88;102362.41;5058242;28;48551;-74
2021/10/11 02:00:08;;;;;;;;;4.75;2.00;;;;;13.53;71.92;102418.13;5042772;28;45219;-74
2021/10/11 02:02:34;;;;;;;;;2.50;2.50;;;;;13.47;71.96;102401.38;5043052;28;45342;-74
2021/10/11 02:04:59;;;;;;;;;3.00;2.75;;;;;13.45;72.32;102397.84;5043002;28;45346;-74
2021/10/11 02:07:25;;;;;;;;;4.25;4.25;;;;;13.53;72.20;102407.66;5042784;28;46148;-74
2021/10/11 02:09:50;;;;;;;;;8.00;3.75;;;;;13.53;72.49;102407.66;5058333;28;46120;-74
2021/10/11 02:12:16;;;;;;;;;0.50;0.50;;;;;13.58;72.29;102396.41;5058164;28;45496;-75
2021/10/11 02:14:41;;;;;;;;;3.75;3.75;;;;;13.28;72.16;102341.69;5042926;28;45544;-76
2021/10/11 02:17:06;;;;;;;;;1.75;1.75;;;;;13.68;72.22;102407.13;5041108;28;46922;-74
2021/10/11 02:19:32;;;;;;;;;5.50;3.50;;;;;13.48;72.39;102379.59;5042541;28;45363;-74
2021/10/11 02:21:57;;;;;;;;;3.00;1.50;;;;;13.54;72.30;102379.78;5042905;28;45307;-74
2021/10/11 02:24:22;;;;;;;;;3.25;2.75;;;;;13.65;72.22;102390.47;5058426;28;45332;-74
2021/10/11 02:26:48;;;;;;;;;3.00;3.00;;;;;13.64;72.67;102393.94;5042555;28;45605;-73
2021/10/11 02:29:13;;;;;;;;;4.75;3.25;;;;;13.68;72.67;102390.53;5042418;28;45217;-73
2021/10/11 02:31:39;;;;;;;;;3.00;3.00;;;;;13.74;72.08;102392.41;5041194;28;45358;-73
2021/10/11 02:34:04;;;;;;;;;6.50;3.00;;;;;13.83;72.40;102392.63;5042752;28;45342;-74
2021/10/11 02:36:30;;;;;;;;;1.75;1.75;;;;;13.88;72.49;102385.72;5057846;28;48132;-73
2021/10/11 02:38:55;;;;;;;;;2.00;2.00;;;;;13.89;72.37;102387.53;5040820;28;45333;-73
2021/10/11 02:41:21;;;;;;;;;2.75;1.00;;;;;13.90;72.16;102385.75;5042518;28;45682;-74
2021/10/11 02:43:47;;;;;;;;;4.25;2.75;;;;;13.98;72.12;102396.41;5041117;28;45559;-74
2021/10/11 02:46:12;;;;;;;;;2.00;2.00;;;;;13.72;72.05;102353.13;5042199;28;46468;-75
2021/10/11 02:48:38;;;;;;;;;1.00;1.00;;;;;13.86;72.11;102368.22;5057660;28;45413;-74
2021/10/11 02:51:03;;;;;;;;;3.00;3.00;;;;;13.94;71.76;102370.16;5042475;28;45345;-74
2021/10/11 02:53:29;;;;;;;;;1.00;1.00;;;;;13.99;71.89;102380.72;5058008;28;45407;-74
2021/10/11 02:55:54;;;;;;;;;3.00;2.00;;;;;14.00;71.66;102371.16;5042151;28;45433;-74
2021/10/11 02:58:20;;;;;;;;;3.25;3.00;;;;;13.97;71.89;102371.09;5042040;28;45325;-73
2021/10/11 03:00:45;;;;;;;;;1.25;1.00;;;;;14.03;72.16;102377.31;5042116;28;45448;-74
2021/10/11 03:03:10;;;;;;;;;5.50;3.25;;;;;13.89;72.04;102363.06;5040781;28;45525;-74
2021/10/11 03:05:36;;;;;;;;;2.25;1.75;;;;;13.81;72.13;102350.69;5040508;28;47031;-74
2021/10/11 03:08:01;;;;;;;;;1.00;1.00;;;;;13.89;72.28;102365.69;5042115;28;45383;-74
2021/10/11 03:10:26;;;;;;;;;0.50;0.50;;;;;14.00;71.89;102385.09;5044274;28;45359;-74
2021/10/11 03:12:52;;;;;;;;;2.00;2.00;;;;;13.91;72.35;102374.47;5044353;28;45513;-74
2021/10/11 03:15:17;;;;;;;;;2.00;1.00;;;;;13.86;72.49;102370.84;5043964;28;47152;-74
2021/10/11 03:17:42;;;;;;;;;2.00;1.75;;;;;13.92;72.24;102386.69;5045200;28;45274;-74
2021/10/11 03:20:08;;;;;;;;;2.50;2.00;;;;;13.89;72.24;102378.78;5045341;28;45467;-74
2021/10/11 03:22:34;;;;;;;;;1.00;1.00;;;;;13.75;72.39;102353.19;5044069;28;45326;-75
2021/10/11 03:24:59;;;;;;;;;4.50;3.00;;;;;13.93;72.32;102389.34;5045135;28;45312;-75
2021/10/11 03:27:24;;;;;;;;;0.50;0.50;;;;;13.59;72.62;102331.03;5045532;28;45260;-75
2021/10/11 03:29:50;;;;;;;;;1.25;1.25;;;;;13.79;72.61;102357.63;5043845;28;45430;-75
2021/10/11 03:32:15;;;;;;;;;1.50;1.00;;;;;13.76;72.18;102361.94;5043973;28;45534;-75
2021/10/11 03:34:40;;;;;;;;;0.50;0.50;;;;;13.79;72.56;102382.94;5044784;28;46264;-75
2021/10/11 03:37:06;;;;;;;;;2.25;1.25;;;;;13.75;72.83;102383.72;5044802;28;45268;-75
2021/10/11 03:39:31;;;;;;;;;1.75;1.00;;;;;13.78;73.24;102392.50;5043867;28;45300;-75
2021/10/11 03:41:56;;;;;;;;;0.00;0.00;;;;;13.78;73.00;102387.28;5045572;28;45223;-75
2021/10/11 03:44:22;;;;;;;;;0.50;0.00;;;;;13.73;72.68;102381.06;5043099;28;45705;-75
2021/10/11 03:46:48;;;;;;;;;1.00;0.00;;;;;13.85;73.21;102392.66;5045252;28;45465;-75
2021/10/11 03:49:13;;;;;;;;;0.25;0.25;;;;;13.87;72.85;102397.06;5045045;28;45351;-75
2021/10/11 03:51:38;;;;;;;;;1.00;1.00;;;;;13.62;72.68;102364.22;5044951;28;45299;-75
2021/10/11 03:54:04;;;;;;;;;0.00;0.00;;;;;13.61;72.71;102368.59;5043622;28;47023;-75
2021/10/11 03:56:29;;;;;;;;;1.00;1.00;;;;;13.74;72.97;102395.03;5043349;28;45865;-75
2021/10/11 03:58:55;;;;;;;;;0.00;0.00;;;;;13.75;72.93;102392.44;5044749;28;45423;-75
2021/10/11 04:01:20;;;;;;;;;2.50;1.75;;;;;13.66;73.08;102374.81;5043747;28;45629;-75
2021/10/11 04:03:46;;;;;;;;;0.00;0.00;;;;;13.74;72.97;102389.78;5042722;28;46945;-74
2021/10/11 04:06:11;;;;;;;;;1.00;1.00;;;;;13.51;73.07;102349.19;5043177;28;45404;-75
2021/10/11 04:08:39;;;;;;;;;1.00;1.00;;;;;13.42;72.98;102334.13;5043189;28;45401;-75
2021/10/11 04:11:10;;;;;;;;;0.00;0.00;;;;;13.75;72.91;102402.91;5045682;28;45422;-75
2021/10/11 04:13:36;;;;;;;;;1.25;1.25;;;;;13.74;73.20;102406.38;5062776;28;47322;-74
2021/10/11 04:16:01;;;;;;;;;1.00;0.75;;;;;13.74;72.77;102403.78;5064288;28;45267;-74
2021/10/11 04:18:34;;;;;;;;;1.00;0.25;;;;;13.57;72.85;102377.25;5064411;28;45424;-80
2021/10/11 04:20:59;;;;;;;;;1.00;0.25;;;;;13.35;72.84;102347.91;5063569;28;45442;-76
2021/10/11 04:23:25;;;;;;;;;0.00;0.00;;;;;13.35;73.21;102349.66;5062433;28;46254;-75
2021/10/11 04:25:51;;;;;;;;;0.00;0.00;;;;;13.63;73.17;102397.41;5062896;28;45735;-75
2021/10/11 04:28:16;;;;;;;;;4.00;0.00;;;;;13.45;72.69;102371.69;5063047;28;45320;-75
2021/10/11 04:30:43;;;;;;;;;1.00;1.00;;;;;13.45;72.38;102383.03;5064421;28;45483;-75
2021/10/11 04:33:09;;;;;;;;;1.00;1.00;;;;;13.37;73.15;102375.00;5062577;28;48086;-76
2021/10/11 04:35:35;;;;;;;;;0.00;0.00;;;;;13.36;73.06;102381.09;5063797;28;45189;-76
2021/10/11 04:38:01;;;;;;;;;1.75;1.00;;;;;13.51;73.26;102405.88;5062532;28;45287;-75
2021/10/11 04:40:26;;;;;;;;;0.00;0.00;;;;;13.41;72.99;102399.50;5060768;28;45298;-76
2021/10/11 04:42:51;;;;;;;;;0.00;0.00;;;;;13.31;73.30;102385.31;5049204;28;48028;-75
2021/10/11 04:45:17;;;;;;;;;0.25;0.00;;;;;13.30;73.33;102397.50;5053419;28;45271;-76
2021/10/11 04:47:42;;;;;;;;;2.00;1.75;;;;;13.15;73.49;102400.66;5058275;28;45236;-76
2021/10/11 04:50:08;;;;;;;;;1.00;1.00;;;;;12.93;73.55;102376.56;5062934;28;45398;-76
2021/10/11 04:52:34;;;;;;;;;0.00;0.00;;;;;12.80;73.86;102364.94;5061650;28;47173;-74
2021/10/11 04:55:00;;;;;;;;;0.00;0.00;;;;;13.09;73.49;102420.50;5061543;28;46276;-74
2021/10/11 04:57:25;;;;;;;;;1.50;0.00;;;;;13.02;73.45;102414.25;5062823;28;45460;-74
2021/10/11 04:59:51;;;;;;;;;0.00;0.00;;;;;13.00;73.94;102415.94;5061609;28;45349;-74
2021/10/11 05:02:16;;;;;;;;;0.75;0.25;;;;;13.08;73.71;102432.69;5061339;28;47099;-74
2021/10/11 05:04:42;;;;;;;;;2.00;1.00;;;;;12.70;73.80;102369.88;5062641;28;45359;-74
2021/10/11 05:07:08;;;;;;;;;0.25;0.25;;;;;12.92;74.15;102426.19;5062999;28;45322;-74
2021/10/11 05:09:33;;;;;;;;;0.00;0.00;;;;;12.92;74.14;102410.50;5062789;28;45490;-75
2021/10/11 05:11:59;;;;;;;;;0.00;0.00;;;;;13.02;73.68;102427.34;5060939;28;47235;-75
2021/10/11 05:14:24;;;;;;;;;0.00;0.00;;;;;13.02;73.59;102427.34;5063135;28;45260;-75
2021/10/11 05:16:50;;;;;;;;;1.00;0.00;;;;;12.85;73.82;102398.13;5061943;28;45476;-75
2021/10/11 05:19:23;;;;;;;;;1.00;0.00;;;;;12.95;74.04;102414.97;5061213;28;45262;-75
2021/10/11 05:21:48;;;;;;;;;0.00;0.00;;;;;12.80;73.69;102398.00;5062535;28;45554;-75
2021/10/11 05:24:14;;;;;;;;;0.00;0.00;;;;;12.91;73.82;102422.72;5056595;28;45242;-75
2021/10/11 05:26:39;;;;;;;;;0.00;0.00;;;;;12.81;73.93;102399.81;5045220;28;45267;-75
2021/10/11 05:29:04;;;;;;;;;1.50;0.00;;;;;12.89;73.23;102419.16;5045236;28;45707;-76
2021/10/11 05:31:31;;;;;;;;;0.00;0.00;;;;;12.79;73.41;102404.09;5042340;28;45546;-75
2021/10/11 05:33:57;;;;;;;;;0.00;0.00;;;;;12.89;73.63;102416.56;5042197;28;45293;-76
2021/10/11 05:36:22;;;;;;;;;0.00;0.00;;;;;12.86;73.48;102424.31;5042606;28;45494;-75
2021/10/11 05:38:47;;;;;;;;;0.00;0.00;;;;;12.88;73.81;102421.75;5056611;28;45510;-75
2021/10/11 05:41:13;;;;;;;;;0.00;0.00;;;;;12.89;73.65;102420.88;5060347;28;46884;-75
2021/10/11 05:43:38;;;;;;;;;1.00;1.00;;;;;13.08;73.52;102440.53;5057543;28;45304;-76
2021/10/11 05:46:04;;;;;;;;;0.00;0.00;;;;;13.05;73.73;102432.66;5040985;28;45311;-75
2021/10/11 05:48:30;;;;;;;;;2.50;0.00;;;;;12.96;73.54;102396.69;5042328;28;45316;-76
2021/10/11 05:50:55;;;;;;;;;0.00;0.00;;;;;13.21;73.39;102443.47;5040974;28;47946;-75
2021/10/11 05:53:20;;;;;;;;;0.00;0.00;;;;;13.26;73.12;102444.50;5043754;28;45247;-76
2021/10/11 05:55:46;;;;;;;;;0.00;0.00;;;;;13.20;72.99;102455.66;5043385;28;45370;-76
2021/10/11 05:58:11;;;;;;;;;1.50;0.75;;;;;12.85;72.98;102383.34;5041232;28;45438;-77
2021/10/11 06:00:37;;;;;;;;;0.00;0.00;;;;;13.25;72.59;102458.38;5043656;28;46491;-76
2021/10/11 06:03:02;;;;;;;;;0.00;0.00;;;;;12.93;72.41;102417.53;5055087;28;45542;-77
2021/10/11 06:05:27;;;;;;;;;0.00;0.00;;;;;13.00;72.84;102431.63;5046251;28;45439;-78
2021/10/11 06:07:53;;;;;;;;;0.00;0.00;;;;;12.82;72.62;102414.63;5041891;28;45590;-81
2021/10/11 06:10:18;;;;;;;;;0.00;0.00;;;;;12.70;72.69;102390.78;5045428;28;47375;-82
2021/10/11 06:12:44;;;;;;;;;1.25;1.25;;;;;13.12;72.43;102472.88;5057251;28;45216;-77
2021/10/11 06:15:10;;;;;;;;;0.00;0.00;;;;;12.81;72.54;102420.72;5063660;28;45263;-82
2021/10/11 06:17:35;;;;;;;;;0.00;0.00;;;;;12.83;72.55;102426.84;5060993;28;45300;-79
2021/10/11 06:20:01;;;;;;;;;0.00;0.00;;;;;12.81;73.00;102423.31;5043308;28;45459;-76
2021/10/11 06:22:26;;;;;;;;;1.00;0.00;;;;;13.00;72.75;102452.53;5041263;28;45233;-77
2021/10/11 06:24:52;;;;;;;;;0.00;0.00;;;;;12.76;72.54;102424.91;5041586;28;45330;-75
2021/10/11 06:27:17;;;;;;;;;0.00;0.00;;;;;12.97;72.27;102471.66;5041491;28;45199;-75
2021/10/11 06:29:43;;;;;;;;;1.00;0.00;;;;;12.64;72.31;102423.75;5041355;28;45436;-76
2021/10/11 06:32:08;;;;;;;;;2.00;1.00;;;;;12.82;72.27;102464.28;5041780;28;45303;-77
2021/10/11 06:34:34;;;;;;;;;0.00;0.00;;;;;12.64;72.39;102443.75;5040272;28;45360;-76
2021/10/11 06:36:59;;;;;;;;;0.00;0.00;;;;;12.73;72.22;102464.03;5041774;28;45369;-84
2021/10/11 06:39:25;;;;;;;;;0.00;0.00;;;;;12.61;72.12;102467.19;5041519;28;45793;-77
2021/10/11 06:41:50;;;;;;;;;0.00;0.00;;;;;12.35;72.44;102430.78;5041913;28;45259;-79
2021/10/11 06:44:17;;;;;;;;;0.00;0.00;;;;;12.71;72.56;102484.00;5052176;28;45295;-77
2021/10/11 06:46:42;;;;;;;;;2.00;2.00;;;;;12.51;72.37;102464.31;5045885;28;45597;-80
2021/10/11 06:49:07;;;;;;;;;0.00;0.00;;;;;12.37;72.35;102423.88;5052330;28;45960;-78
2021/10/11 06:51:33;;;;;;;;;1.00;0.25;;;;;12.49;71.97;102450.31;5061544;28;45327;-76
2021/10/11 06:53:58;;;;;;;;;2.00;0.00;;;;;12.75;72.18;102497.22;5051775;28;45214;-76
2021/10/11 06:56:23;;;;;;;;;0.00;0.00;;;;;12.67;71.87;102465.63;5061337;28;45160;-76
2021/10/11 06:58:49;;;;;;;;;0.00;0.00;;;;;12.73;71.73;102488.44;5060970;28;45418;-76
2021/10/11 07:01:14;;;;;;;;;0.00;0.00;;;;;12.81;71.97;102501.72;5059017;28;45374;-76
2021/10/11 07:03:40;;;;;;;;;0.25;0.00;;;;;12.72;71.66;102470.09;5060053;28;45736;-76
2021/10/11 07:06:20;;;;;;;;;0.00;0.00;;;;;12.78;71.62;102478.97;5060840;28;45653;-82
2021/10/11 07:08:46;;;;;;;;;0.00;0.00;;;;;12.66;71.46;102469.09;5059162;28;47188;-80
2021/10/11 07:11:11;;;;;;;;;2.50;0.00;;;;;12.77;71.55;102481.56;5039601;28;45561;-79
2021/10/11 07:13:37;;;;;;;;;0.00;0.00;;;;;12.82;71.32;102500.88;5044184;28;45498;-85
2021/10/11 07:16:03;;;;;;;;;0.00;0.00;;;;;12.77;71.37;102484.19;5051428;28;45567;-77
2021/10/11 07:18:30;;;;;;;;;0.00;0.00;;;;;12.76;71.13;102480.69;5059326;28;45435;-77
2021/10/11 07:21:01;;;;;;;;;0.00;0.00;;;;;12.86;71.06;102491.41;5050114;28;45189;-77
2021/10/11 07:23:35;;;;;;;;;0.00;0.00;;;;;11.62;70.69;102266.03;5044645;28;45540;-76
2021/10/11 07:26:04;;;;;;;;;0.00;0.00;;;;;12.25;70.70;102378.28;5043416;28;45640;-78
2021/10/11 07:28:29;;;;;;;;;0.00;0.00;;;;;12.87;70.29;102488.81;5050572;28;45384;-77
2021/10/11 07:30:55;;;;;;;;;2.00;0.00;;;;;12.75;70.31;102467.56;5057071;28;45363;-77
2021/10/11 07:33:21;;;;;;;;;0.00;0.00;;;;;12.79;70.24;102486.00;5053481;28;45366;-78
2021/10/11 07:35:47;;;;;;;;;0.00;0.00;;;;;12.88;69.68;102495.81;5058799;28;45601;-78
2021/10/11 07:38:13;;;;;;;;;0.00;0.00;;;;;12.58;69.81;102454.91;5053330;28;46607;-80
2021/10/11 07:40:38;;;;;;;;;0.00;0.00;;;;;12.30;69.85;102412.34;5058552;28;45544;-79
2021/10/11 07:43:04;;;;;;;;;0.00;0.00;;;;;12.80;69.53;102492.09;5044257;28;45412;-75
2021/10/11 07:45:29;;;;;;;;;0.00;0.00;;;;;13.00;69.65;102523.13;5048834;28;45299;-78
2021/10/11 07:47:55;;;;;;;;;0.00;0.00;;;;;13.09;69.19;102525.09;5050751;28;46913;-75
2021/10/11 07:50:20;;;;;;;;;0.00;0.00;;;;;13.24;69.33;102541.22;5049454;28;45459;-75
2021/10/11 07:52:46;;;;;;;;;6.25;1.00;;;;;13.16;68.87;102514.84;5052360;28;45318;-78
2021/10/11 07:55:12;;;;;;;;;0.00;0.00;;;;;13.33;68.71;102535.34;5053139;28;45288;-77
2021/10/11 07:57:38;;;;;;;;;1.00;0.00;;;;;13.21;68.62;102512.38;5055916;28;45592;-76
2021/10/11 08:00:06;;;;;;;;;0.00;0.00;;;;;13.19;68.32;102511.44;5050755;28;45426;-77
2021/10/11 08:02:32;;;;;;;;;0.00;0.00;;;;;13.22;68.36;102508.00;5052795;28;45351;-77
2021/10/11 08:04:57;;;;;;;;;1.00;1.00;;;;;13.10;67.81;102488.53;5055055;28;45360;-77
2021/10/11 08:07:23;;;;;;;;;0.00;0.00;;;;;13.26;68.11;102512.50;5056704;28;47252;-77
2021/10/11 08:09:48;;;;;;;;;0.00;0.00;;;;;13.33;67.63;102521.38;5051083;28;45428;-77
2021/10/11 08:12:13;;;;;;;;;0.00;0.00;;;;;13.25;67.60;102508.09;5050822;28;45985;-77
2021/10/11 08:14:39;;;;;;;;;0.00;0.00;;;;;13.55;67.19;102546.38;5056158;28;45684;-77
2021/10/11 08:17:05;;;;;;;;;0.00;0.00;;;;;13.59;67.29;102544.69;5058100;28;45302;-76
2021/10/11 08:19:30;;;;;;;;;2.00;0.00;;;;;13.48;66.81;102524.34;5050351;28;45226;-76
2021/10/11 08:21:55;;;;;;;;;0.00;0.00;;;;;13.59;66.69;102522.06;5050538;28;45525;-76
2021/10/11 08:24:21;;;;;;;;;1.00;0.00;;;;;13.58;66.98;102515.06;5047252;28;45920;-77
2021/10/11 08:26:46;;;;;;;;;0.00;0.00;;;;;13.90;66.39;102556.81;5051801;28;47259;-77
2021/10/11 08:29:12;;;;;;;;;0.00;0.00;;;;;13.93;66.42;102556.00;5055799;28;45437;-76
2021/10/11 08:31:38;;;;;;;;;0.00;0.00;;;;;14.01;66.42;102566.66;5057823;28;45249;-75
2021/10/11 08:34:04;;;;;;;;;0.00;0.00;;;;;14.03;65.96;102538.78;5055990;28;45488;-77
2021/10/11 08:36:29;;;;;;;;;0.00;0.00;;;;;14.16;65.89;102539.94;5054852;28;45359;-76
2021/10/11 08:38:55;;;;;;;;;1.00;1.00;;;;;14.09;65.73;102504.00;5053338;28;45303;-77
2021/10/11 08:41:21;;;;;;;;;0.00;0.00;;;;;14.39;65.44;102561.41;5049446;28;45476;-77
2021/10/11 08:43:47;;;;;;;;;0.00;0.00;;;;;14.28;65.27;102523.63;5046738;28;45586;-78
2021/10/11 08:46:12;;;;;;;;;0.00;0.00;;;;;14.46;64.84;102548.44;5050807;28;47220;-77
2021/10/11 08:48:38;;;;;;;;;0.00;0.00;;;;;14.35;64.43;102528.16;5056159;28;45584;-77
2021/10/11 08:51:05;;;;;;;;;0.50;0.00;;;;;14.59;64.07;102553.09;5051545;28;45555;-77
2021/10/11 08:53:31;;;;;;;;;0.00;0.00;;;;;14.76;64.06;102565.69;5050928;28;45394;-77
2021/10/11 08:55:56;;;;;;;;;0.00;0.00;;;;;14.62;64.06;102526.06;5046020;28;45437;-77
2021/10/11 08:58:22;;;;;;;;;0.00;0.00;;;;;14.51;63.97;102497.00;5047825;28;45402;-77
2021/10/11 09:00:47;;;;;;;;;0.00;0.00;;;;;15.06;63.36;102575.91;5056879;28;45584;-76
2021/10/11 09:03:18;;;;;;;;;0.00;0.00;;;;;15.23;62.87;102569.22;5047652;28;45433;-76
2021/10/11 09:05:47;;;;;;;;;0.00;0.00;;;;;15.07;62.54;102542.72;5041402;28;46247;-76
2021/10/11 09:08:18;;;;;;;;;0.00;0.00;;;;;15.12;62.38;102554.16;5054599;28;45597;-76
2021/10/11 09:10:55;;;;;;;;;0.00;0.00;;;;;14.96;61.84;102534.63;5053612;28;45423;-75
2021/10/11 09:13:26;;;;;;;;;0.00;0.00;;;;;15.24;62.44;102584.09;5050094;28;45467;-77
2021/10/11 09:16:03;;;;;;;;;0.00;0.00;;;;;15.33;62.30;102585.16;5055525;28;45406;-77
2021/10/11 09:18:29;;;;;;;;;0.00;0.00;;;;;15.36;61.33;102586.06;5055169;28;45458;-77
2021/10/11 09:20:56;;;;;;;;;0.00;0.00;;;;;15.36;61.55;102597.44;5042393;28;45485;-76
2021/10/11 09:23:23;;;;;;;;;0.00;0.00;;;;;15.39;61.42;102605.38;5040592;28;45351;-76
2021/10/11 09:25:49;;;;;;;;;0.00;0.00;;;;;14.68;61.10;102451.03;5056277;28;45364;-76
2021/10/11 09:28:18;;;;;;;;;0.00;0.00;;;;;15.28;61.36;102541.34;5047447;28;45403;-76
2021/10/11 09:30:46;;;;;;;;;0.00;0.00;;;;;15.54;60.93;102575.00;5048598;28;45300;-76
2021/10/11 09:33:12;;;;;;;;;0.00;0.00;;;;;15.66;60.96;102576.97;5052456;28;45550;-76
2021/10/11 09:35:38;;;;;;;;;0.00;0.00;;;;;15.80;60.63;102574.56;5057851;28;45951;-76
2021/10/11 09:38:25;;;;;;;;;1.25;0.00;;;;;15.70;60.38;102548.16;5057848;28;45477;-76
2021/10/11 09:40:53;;;;;;;;;0.00;0.00;;;;;15.56;59.77;102528.69;5058234;28;45470;-82
2021/10/11 09:43:28;;;;;;;;;0.00;0.00;;;;;15.70;59.48;102550.78;5047662;28;45592;-81
2021/10/11 09:45:54;;;;;;;;;0.00;0.00;;;;;15.77;59.10;102574.53;5045756;28;45522;-81
2021/10/11 09:48:22;;;;;;;;;0.00;0.00;;;;;15.75;59.78;102573.59;5042476;28;45367;-79
2021/10/11 09:50:48;;;;;;;;;0.00;0.00;;;;;15.61;59.51;102560.25;5048805;28;45344;-82
2021/10/11 09:53:16;;;;;;;;;0.00;0.00;;;;;15.76;59.03;102568.38;5052439;28;45484;-77
2021/10/11 09:55:44;;;;;;;;;0.00;0.00;;;;;15.40;59.23;102494.31;5042939;28;46366;-77
2021/10/11 09:58:11;;;;;;;;;0.00;0.00;;;;;15.75;58.69;102540.38;5052442;28;45386;-75
2021/10/11 10:00:41;;;;;;;;;0.00;0.00;;;;;15.89;58.33;102574.72;5051632;28;45274;-75
2021/10/11 10:03:09;;;;;;;;;0.00;0.00;;;;;15.80;57.91;102566.66;5055543;28;45476;-75
2021/10/11 10:05:45;;;;;;;;;1.50;0.25;;;;;15.71;57.85;102565.69;5055511;28;47440;-74
2021/10/11 10:08:15;;;;;;;;;0.00;0.00;;;;;15.58;57.57;102556.72;5051595;28;45355;-77
2021/10/11 10:10:42;;;;;;;;;0.00;0.00;;;;;15.24;57.85;102522.03;5059147;28;45173;-77
2021/10/11 10:13:19;;;;;;;;;0.00;0.00;;;;;15.42;57.14;102557.31;5040122;28;45476;-77
2021/10/11 10:15:45;;;;;;;;;0.50;0.00;;;;;15.37;57.27;102546.72;5057121;28;45448;-80
2021/10/11 10:18:13;;;;;;;;;0.00;0.00;;;;;15.34;57.29;102533.56;5046448;28;45363;-79
2021/10/11 10:20:59;;;;;;;;;0.00;0.00;;;;;15.60;56.96;102551.50;5049060;28;45621;-82
2021/10/11 10:23:31;;;;;;;;;0.00;0.00;;;;;15.57;57.04;102535.69;5070234;28;45324;-80
2021/10/11 10:25:58;;;;;;;;;0.00;0.00;;;;;15.38;57.21;102506.53;5068098;28;45715;-79
2021/10/11 10:28:28;;;;;;;;;0.00;0.00;;;;;15.60;57.38;102533.13;5069440;28;45417;-79
2021/10/11 10:30:56;;;;;;;;;0.00;0.00;;;;;15.68;56.73;102542.00;5061485;28;45518;-79
2021/10/11 10:33:35;;;;;;;;;0.00;0.00;;;;;15.63;56.82;102530.56;5061175;28;45358;-80
2021/10/11 10:36:00;;;;;;;;;0.00;0.00;;;;;15.75;56.22;102556.13;5058756;28;46621;-78
2021/10/11 10:38:27;;;;;;;;;0.00;0.00;;;;;15.78;56.32;102529.03;5052474;28;45294;-77
2021/10/11 10:40:53;;;;;;;;;0.00;0.00;;;;;15.56;55.89;102474.44;5040513;28;45454;-79
2021/10/11 10:43:19;;;;;;;;;0.00;0.00;;;;;15.99;55.06;102503.97;5044962;28;45351;-78
2021/10/11 10:45:48;;;;;;;;;0.00;0.00;;;;;16.15;54.93;102512.94;5051044;28;45319;-79
2021/10/11 10:48:23;;;;;;;;;0.00;0.00;;;;;15.82;53.55;102466.09;5052588;28;45521;-79
2021/10/11 10:50:51;;;;;;;;;0.50;0.00;;;;;16.37;53.23;102556.16;5052788;28;45506;-79
2021/10/11 10:53:17;;;;;;;;;0.00;0.00;;;;;15.96;52.48;102481.19;5058711;28;45579;-78
2021/10/11 10:55:42;;;;;;;;;0.00;0.00;;;;;16.48;53.27;102573.81;5047699;28;45566;-79
2021/10/11 10:58:10;;;;;;;;;0.00;0.00;;;;;16.52;52.73;102567.75;5046452;28;45300;-77
2021/10/11 11:00:38;;;;;;;;;0.00;0.00;;;;;16.49;52.53;102568.59;5051420;28;45444;-77
2021/10/11 11:03:03;;;;;;;;;0.00;0.00;;;;;16.39;53.17;102546.56;5039963;28;45568;-78
2021/10/11 11:05:30;;;;;;;;;0.00;0.00;;;;;16.12;52.30;102500.66;5049112;28;45590;-78
2021/10/11 11:07:57;;;;;;;;;0.00;0.00;;;;;16.50;53.24;102553.69;5050942;28;45373;-77
2021/10/11 11:10:30;;;;;;;;;0.00;0.00;;;;;16.14;52.74;102496.28;5043240;28;45347;-78
2021/10/11 11:13:03;;;;;;;;;4.00;0.00;;;;;16.04;52.62;102484.78;5043319;28;45359;-79
2021/10/11 11:15:33;;;;;;;;;0.00;0.00;;;;;16.64;52.73;102567.91;5043983;28;46167;-78
2021/10/11 11:18:02;;;;;;;;;0.25;0.00;;;;;16.43;52.27;102560.63;5047094;28;45501;-79
2021/10/11 11:20:34;;;;;;;;;1.75;0.25;;;;;16.40;52.62;102577.25;5039886;28;45395;-77